sensor_id;sensor_type;location;lat;lon;timestamp;pressure;altitude;pressure_sealevel;temperature;humidity
1926;BME280;964;42.606;23.588;2022-10-29T00:00:53;95696.19;;;21.08;35.25
1926;BME280;964;42.606;23.588;2022-10-29T00:03:20;95696.84;;;21.54;34.11
1926;BME280;964;42.606;23.588;2022-10-29T00:05:54;95691.53;;;21.36;34.56
1926;BME280;964;42.606;23.588;2022-10-29T00:08:22;95693.75;;;21.59;34.42
1926;BME280;964;42.606;23.588;2022-10-29T00:10:49;95685.69;;;21.52;34.35
1926;BME280;964;42.606;23.588;2022-10-29T00:13:16;95691.41;;;21.68;33.48
1926;BME280;964;42.606;23.588;2022-10-29T00:15:42;95688.28;;;21.77;33.68
1926;BME280;964;42.606;23.588;2022-10-29T00:18:09;95687.56;;;21.62;33.56
1926;BME280;964;42.606;23.588;2022-10-29T00:20:36;95690.72;;;21.43;34.18
1926;BME280;964;42.606;23.588;2022-10-29T00:23:03;95694.16;;;21.54;33.44
1926;BME280;964;42.606;23.588;2022-10-29T00:25:31;95688.38;;;21.59;33.79
1926;BME280;964;42.606;23.588;2022-10-29T00:27:57;95680.03;;;21.00;33.74
1926;BME280;964;42.606;23.588;2022-10-29T00:30:24;95679.66;;;20.84;34.34
1926;BME280;964;42.606;23.588;2022-10-29T00:32:51;95683.13;;;20.46;35.13
1926;BME280;964;42.606;23.588;2022-10-29T00:35:18;95680.75;;;19.98;36.15
1926;BME280;964;42.606;23.588;2022-10-29T00:37:44;95683.09;;;20.21;35.67
1926;BME280;964;42.606;23.588;2022-10-29T00:40:11;95678.09;;;20.20;35.98
1926;BME280;964;42.606;23.588;2022-10-29T00:42:39;95674.66;;;20.44;35.22
1926;BME280;964;42.606;23.588;2022-10-29T00:45:16;95667.66;;;19.93;35.72
1926;BME280;964;42.606;23.588;2022-10-29T00:47:47;95671.41;;;19.68;36.85
1926;BME280;964;42.606;23.588;2022-10-29T00:50:15;95670.94;;;19.41;38.34
1926;BME280;964;42.606;23.588;2022-10-29T00:52:44;95675.22;;;19.49;37.80
1926;BME280;964;42.606;23.588;2022-10-29T00:55:14;95666.78;;;19.54;37.10
1926;BME280;964;42.606;23.588;2022-10-29T00:57:46;95666.84;;;19.75;36.38
1926;BME280;964;42.606;23.588;2022-10-29T01:00:16;95670.91;;;19.37;37.46
1926;BME280;964;42.606;23.588;2022-10-29T01:02:43;95661.41;;;19.54;37.43
1926;BME280;964;42.606;23.588;2022-10-29T01:05:11;95665.72;;;19.90;36.72
1926;BME280;964;42.606;23.588;2022-10-29T01:07:40;95669.13;;;19.63;36.98
1926;BME280;964;42.606;23.588;2022-10-29T01:10:08;95665.19;;;19.46;37.16
1926;BME280;964;42.606;23.588;2022-10-29T01:12:59;95664.00;;;18.71;39.46
1926;BME280;964;42.606;23.588;2022-10-29T01:15:37;95661.91;;;19.05;38.82
1926;BME280;964;42.606;23.588;2022-10-29T01:18:12;95662.34;;;19.18;37.83
1926;BME280;964;42.606;23.588;2022-10-29T01:30:04;95643.38;;;18.82;39.35
1926;BME280;964;42.606;23.588;2022-10-29T01:32:38;95629.91;;;19.54;38.09
1926;BME280;964;42.606;23.588;2022-10-29T01:35:12;95628.03;;;19.76;37.66
1926;BME280;964;42.606;23.588;2022-10-29T01:37:47;95628.50;;;20.24;36.64
1926;BME280;964;42.606;23.588;2022-10-29T01:40:23;95623.88;;;20.21;36.33
1926;BME280;964;42.606;23.588;2022-10-29T01:42:53;95622.34;;;20.02;36.39
1926;BME280;964;42.606;23.588;2022-10-29T01:45:25;95629.56;;;19.70;37.06
1926;BME280;964;42.606;23.588;2022-10-29T01:47:56;95640.72;;;18.89;38.42
1926;BME280;964;42.606;23.588;2022-10-29T01:50:25;95624.78;;;19.25;38.03
1926;BME280;964;42.606;23.588;2022-10-29T01:52:53;95627.88;;;19.27;38.73
1926;BME280;964;42.606;23.588;2022-10-29T01:55:27;95625.34;;;19.69;37.50
1926;BME280;964;42.606;23.588;2022-10-29T01:57:54;95621.56;;;20.05;36.85
1926;BME280;964;42.606;23.588;2022-10-29T02:00:21;95615.41;;;20.01;37.21
1926;BME280;964;42.606;23.588;2022-10-29T02:03:00;95624.25;;;19.95;37.11
1926;BME280;964;42.606;23.588;2022-10-29T02:05:37;95620.00;;;19.87;37.51
1926;BME280;964;42.606;23.588;2022-10-29T02:08:18;95614.22;;;19.71;38.37
1926;BME280;964;42.606;23.588;2022-10-29T02:10:51;95621.53;;;19.84;37.05
1926;BME280;964;42.606;23.588;2022-10-29T02:13:23;95616.91;;;19.71;37.10
1926;BME280;964;42.606;23.588;2022-10-29T02:15:55;95621.19;;;18.99;38.90
1926;BME280;964;42.606;23.588;2022-10-29T02:18:23;95621.41;;;18.22;40.94
1926;BME280;964;42.606;23.588;2022-10-29T02:20:50;95612.28;;;18.30;40.96
1926;BME280;964;42.606;23.588;2022-10-29T02:23:17;95595.97;;;19.25;38.94
1926;BME280;964;42.606;23.588;2022-10-29T02:25:44;95584.56;;;19.53;37.89
1926;BME280;964;42.606;23.588;2022-10-29T02:28:10;95589.06;;;19.28;37.68
1926;BME280;964;42.606;23.588;2022-10-29T02:30:37;95589.94;;;19.46;37.76
1926;BME280;964;42.606;23.588;2022-10-29T02:33:04;95579.97;;;19.50;37.39
1926;BME280;964;42.606;23.588;2022-10-29T02:35:32;95592.19;;;19.37;37.71
1926;BME280;964;42.606;23.588;2022-10-29T02:38:01;95590.25;;;19.34;37.58
1926;BME280;964;42.606;23.588;2022-10-29T02:40:27;95597.53;;;19.30;37.40
1926;BME280;964;42.606;23.588;2022-10-29T02:42:54;95602.25;;;19.54;37.53
1926;BME280;964;42.606;23.588;2022-10-29T02:45:21;95593.88;;;20.19;36.00
1926;BME280;964;42.606;23.588;2022-10-29T02:47:47;95593.81;;;19.55;37.29
1926;BME280;964;42.606;23.588;2022-10-29T02:50:14;95586.22;;;20.25;35.96
1926;BME280;964;42.606;23.588;2022-10-29T02:52:42;95593.13;;;20.54;35.11
1926;BME280;964;42.606;23.588;2022-10-29T02:55:09;95601.59;;;20.49;35.21
1926;BME280;964;42.606;23.588;2022-10-29T02:57:36;95595.44;;;20.41;35.47
1926;BME280;964;42.606;23.588;2022-10-29T03:00:03;95600.81;;;20.13;35.33
1926;BME280;964;42.606;23.588;2022-10-29T03:02:30;95604.66;;;20.12;35.41
1926;BME280;964;42.606;23.588;2022-10-29T03:04:56;95603.09;;;20.15;34.92
1926;BME280;964;42.606;23.588;2022-10-29T03:07:23;95604.56;;;19.48;36.92
1926;BME280;964;42.606;23.588;2022-10-29T03:09:51;95596.72;;;19.15;37.27
1926;BME280;964;42.606;23.588;2022-10-29T03:12:21;95589.91;;;19.42;36.60
1926;BME280;964;42.606;23.588;2022-10-29T03:14:49;95590.69;;;19.43;36.75
1926;BME280;964;42.606;23.588;2022-10-29T03:17:16;95589.06;;;19.28;37.22
1926;BME280;964;42.606;23.588;2022-10-29T03:19:43;95588.97;;;19.03;38.05
1926;BME280;964;42.606;23.588;2022-10-29T03:22:09;95588.03;;;19.50;37.15
1926;BME280;964;42.606;23.588;2022-10-29T03:24:36;95587.31;;;19.67;36.47
1926;BME280;964;42.606;23.588;2022-10-29T03:27:04;95584.19;;;19.44;36.71
1926;BME280;964;42.606;23.588;2022-10-29T03:29:31;95589.81;;;19.18;37.64
1926;BME280;964;42.606;23.588;2022-10-29T03:31:57;95589.81;;;19.18;37.24
1926;BME280;964;42.606;23.588;2022-10-29T03:34:24;95588.31;;;19.31;36.90
1926;BME280;964;42.606;23.588;2022-10-29T03:36:51;95586.69;;;19.05;37.54
1926;BME280;964;42.606;23.588;2022-10-29T03:39:17;95589.75;;;19.03;38.02
1926;BME280;964;42.606;23.588;2022-10-29T03:41:44;95587.41;;;18.98;36.99
1926;BME280;964;42.606;23.588;2022-10-29T03:44:12;95593.50;;;18.88;37.95
1926;BME280;964;42.606;23.588;2022-10-29T03:46:39;95592.00;;;18.94;37.82
1926;BME280;964;42.606;23.588;2022-10-29T03:49:05;95580.63;;;19.26;37.00
1926;BME280;964;42.606;23.588;2022-10-29T03:51:32;95585.00;;;18.72;37.81
1926;BME280;964;42.606;23.588;2022-10-29T03:53:59;95586.78;;;19.30;36.41
1926;BME280;964;42.606;23.588;2022-10-29T03:56:25;95591.34;;;19.19;36.82
1926;BME280;964;42.606;23.588;2022-10-29T03:58:52;95582.47;;;19.07;37.52
1926;BME280;964;42.606;23.588;2022-10-29T04:01:20;95589.75;;;19.03;36.71
1926;BME280;964;42.606;23.588;2022-10-29T04:03:47;95598.72;;;18.60;38.10
1926;BME280;964;42.606;23.588;2022-10-29T04:06:14;95592.69;;;18.77;37.15
1926;BME280;964;42.606;23.588;2022-10-29T04:08:43;95600.16;;;18.47;37.91
1926;BME280;964;42.606;23.588;2022-10-29T04:11:10;95598.13;;;18.91;37.99
1926;BME280;964;42.606;23.588;2022-10-29T04:13:37;95583.47;;;18.71;36.96
1926;BME280;964;42.606;23.588;2022-10-29T04:16:04;95595.75;;;18.76;37.31
1926;BME280;964;42.606;23.588;2022-10-29T04:18:32;95592.31;;;18.75;37.55
1926;BME280;964;42.606;23.588;2022-10-29T04:20:59;95590.53;;;19.04;36.70
1926;BME280;964;42.606;23.588;2022-10-29T04:23:26;95599.81;;;19.28;36.51
1926;BME280;964;42.606;23.588;2022-10-29T04:25:55;95592.97;;;19.41;36.17
1926;BME280;964;42.606;23.588;2022-10-29T04:28:22;95601.44;;;19.43;35.90
1926;BME280;964;42.606;23.588;2022-10-29T04:30:48;95603.34;;;18.63;36.73
1926;BME280;964;42.606;23.588;2022-10-29T04:33:15;95595.00;;;18.79;36.85
1926;BME280;964;42.606;23.588;2022-10-29T04:35:44;95601.84;;;18.69;36.75
1926;BME280;964;42.606;23.588;2022-10-29T04:38:16;95610.00;;;18.29;38.65
1926;BME280;964;42.606;23.588;2022-10-29T04:40:43;95608.88;;;17.89;39.71
1926;BME280;964;42.606;23.588;2022-10-29T04:43:09;95615.66;;;17.76;40.55
1926;BME280;964;42.606;23.588;2022-10-29T04:45:36;95603.81;;;18.21;38.77
1926;BME280;964;42.606;23.588;2022-10-29T04:48:04;95607.16;;;18.14;38.21
1926;BME280;964;42.606;23.588;2022-10-29T04:50:32;95614.59;;;17.17;40.83
1926;BME280;964;42.606;23.588;2022-10-29T04:53:01;95624.44;;;17.73;40.23
1926;BME280;964;42.606;23.588;2022-10-29T04:55:28;95618.72;;;17.78;39.79
1926;BME280;964;42.606;23.588;2022-10-29T04:57:56;95620.53;;;17.34;40.46
1926;BME280;964;42.606;23.588;2022-10-29T05:00:23;95623.88;;;17.57;40.83
1926;BME280;964;42.606;23.588;2022-10-29T05:02:51;95621.75;;;18.13;40.01
1926;BME280;964;42.606;23.588;2022-10-29T05:05:19;95619.00;;;18.06;39.48
1926;BME280;964;42.606;23.588;2022-10-29T05:07:46;95622.22;;;18.26;39.06
1926;BME280;964;42.606;23.588;2022-10-29T05:10:21;95614.66;;;18.39;38.51
1926;BME280;964;42.606;23.588;2022-10-29T05:12:55;95616.75;;;18.16;39.55
1926;BME280;964;42.606;23.588;2022-10-29T05:15:49;95611.81;;;17.74;39.83
1926;BME280;964;42.606;23.588;2022-10-29T05:18:17;95613.59;;;17.99;40.75
1926;BME280;964;42.606;23.588;2022-10-29T05:20:43;95613.06;;;18.82;39.23
1926;BME280;964;42.606;23.588;2022-10-29T05:23:11;95615.84;;;19.03;37.69
1926;BME280;964;42.606;23.588;2022-10-29T05:25:39;95611.75;;;19.27;37.43
1926;BME280;964;42.606;23.588;2022-10-29T05:28:08;95622.41;;;19.13;36.92
1926;BME280;964;42.606;23.588;2022-10-29T05:30:37;95621.19;;;18.99;38.16
1926;BME280;964;42.606;23.588;2022-10-29T05:33:05;95622.78;;;19.07;38.23
1926;BME280;964;42.606;23.588;2022-10-29T05:35:32;95623.59;;;19.19;37.75
1926;BME280;964;42.606;23.588;2022-10-29T05:37:59;95619.97;;;19.80;37.38
1926;BME280;964;42.606;23.588;2022-10-29T05:40:25;95607.72;;;21.75;34.88
1926;BME280;964;42.606;23.588;2022-10-29T05:42:54;95597.25;;;24.09;32.26
1926;BME280;964;42.606;23.588;2022-10-29T05:45:20;95589.06;;;25.64;29.33
1926;BME280;964;42.606;23.588;2022-10-29T05:47:54;95581.38;;;27.75;27.39
1926;BME280;964;42.606;23.588;2022-10-29T05:50:21;95577.13;;;28.37;25.35
1926;BME280;964;42.606;23.588;2022-10-29T05:52:53;95579.91;;;29.80;24.15
1926;BME280;964;42.606;23.588;2022-10-29T05:55:20;95585.16;;;29.65;23.77
1926;BME280;964;42.606;23.588;2022-10-29T05:57:47;95580.38;;;30.86;22.91
1926;BME280;964;42.606;23.588;2022-10-29T06:00:15;95579.19;;;30.96;22.51
1926;BME280;964;42.606;23.588;2022-10-29T06:02:42;95567.72;;;33.07;20.75
1926;BME280;964;42.606;23.588;2022-10-29T06:05:09;95571.41;;;32.00;21.93
1926;BME280;964;42.606;23.588;2022-10-29T06:07:35;95574.69;;;32.93;20.97
1926;BME280;964;42.606;23.588;2022-10-29T06:10:03;95582.97;;;33.46;20.39
1926;BME280;964;42.606;23.588;2022-10-29T06:12:30;95578.22;;;34.40;19.94
1926;BME280;964;42.606;23.588;2022-10-29T06:14:57;95575.81;;;34.63;19.63
1926;BME280;964;42.606;23.588;2022-10-29T06:17:25;95583.59;;;35.05;18.95
1926;BME280;964;42.606;23.588;2022-10-29T06:19:52;95575.22;;;34.59;19.33
1926;BME280;964;42.606;23.588;2022-10-29T06:22:18;95575.88;;;34.88;19.18
1926;BME280;964;42.606;23.588;2022-10-29T06:24:45;95579.09;;;35.79;18.96
1926;BME280;964;42.606;23.588;2022-10-29T06:30:46;95566.44;;;35.67;18.84
1926;BME280;964;42.606;23.588;2022-10-29T06:33:14;95557.81;;;36.16;18.03
1926;BME280;964;42.606;23.588;2022-10-29T06:35:42;95561.13;;;36.20;17.90
1926;BME280;964;42.606;23.588;2022-10-29T06:38:09;95560.34;;;36.62;17.90
1926;BME280;964;42.606;23.588;2022-10-29T06:40:36;95574.06;;;36.46;18.03
1926;BME280;964;42.606;23.588;2022-10-29T06:43:04;95565.31;;;37.06;18.03
1926;BME280;964;42.606;23.588;2022-10-29T06:45:31;95560.16;;;36.77;18.28
1926;BME280;964;42.606;23.588;2022-10-29T06:47:59;95546.59;;;37.94;17.66
1926;BME280;964;42.606;23.588;2022-10-29T06:50:27;95548.34;;;38.13;16.91
1926;BME280;964;42.606;23.588;2022-10-29T06:52:55;95562.69;;;37.67;17.74
1926;BME280;964;42.606;23.588;2022-10-29T06:55:22;95561.97;;;37.78;17.52
1926;BME280;964;42.606;23.588;2022-10-29T06:57:55;95555.66;;;37.77;17.22
1926;BME280;964;42.606;23.588;2022-10-29T07:00:22;95566.91;;;37.29;17.96
1926;BME280;964;42.606;23.588;2022-10-29T07:02:48;95563.94;;;37.83;17.22
1926;BME280;964;42.606;23.588;2022-10-29T07:05:15;95573.69;;;37.34;17.54
1926;BME280;964;42.606;23.588;2022-10-29T07:07:43;95575.94;;;37.30;17.76
1926;BME280;964;42.606;23.588;2022-10-29T07:10:10;95580.50;;;36.00;18.56
1926;BME280;964;42.606;23.588;2022-10-29T07:12:38;95574.22;;;36.68;18.01
1926;BME280;964;42.606;23.588;2022-10-29T07:15:06;95577.53;;;37.81;17.46
1926;BME280;964;42.606;23.588;2022-10-29T07:17:33;95584.88;;;36.97;18.31
1926;BME280;964;42.606;23.588;2022-10-29T07:19:59;95574.41;;;35.90;18.52
1926;BME280;964;42.606;23.588;2022-10-29T07:22:26;95602.00;;;34.58;19.78
1926;BME280;964;42.606;23.588;2022-10-29T07:24:54;95587.97;;;35.88;18.40
1926;BME280;964;42.606;23.588;2022-10-29T07:27:21;95582.97;;;37.25;18.24
1926;BME280;964;42.606;23.588;2022-10-29T07:29:47;95576.41;;;38.73;16.93
1926;BME280;964;42.606;23.588;2022-10-29T07:32:14;95577.72;;;39.30;16.31
1926;BME280;964;42.606;23.588;2022-10-29T07:34:41;95576.06;;;39.51;16.18
1926;BME280;964;42.606;23.588;2022-10-29T07:37:07;95581.22;;;37.22;17.95
1926;BME280;964;42.606;23.588;2022-10-29T07:39:34;95571.25;;;38.25;17.52
1926;BME280;964;42.606;23.588;2022-10-29T07:42:02;95577.94;;;39.37;16.65
1926;BME280;964;42.606;23.588;2022-10-29T07:44:29;95576.34;;;39.53;16.24
1926;BME280;964;42.606;23.588;2022-10-29T07:46:56;95579.22;;;39.72;15.91
1926;BME280;964;42.606;23.588;2022-10-29T07:49:23;95579.66;;;38.88;16.54
1926;BME280;964;42.606;23.588;2022-10-29T07:51:49;95570.06;;;40.17;16.09
1926;BME280;964;42.606;23.588;2022-10-29T07:54:16;95561.34;;;40.99;15.54
1926;BME280;964;42.606;23.588;2022-10-29T07:56:43;95560.22;;;41.64;14.90
1926;BME280;964;42.606;23.588;2022-10-29T07:59:11;95561.19;;;41.10;15.04
1926;BME280;964;42.606;23.588;2022-10-29T08:01:39;95559.72;;;40.12;15.78
1926;BME280;964;42.606;23.588;2022-10-29T08:04:05;95563.97;;;40.68;16.22
1926;BME280;964;42.606;23.588;2022-10-29T08:06:32;95561.69;;;40.90;15.33
1926;BME280;964;42.606;23.588;2022-10-29T08:08:59;95557.00;;;41.23;15.71
1926;BME280;964;42.606;23.588;2022-10-29T08:11:25;95558.28;;;41.40;15.82
1926;BME280;964;42.606;23.588;2022-10-29T08:13:52;95543.47;;;42.54;14.90
1926;BME280;964;42.606;23.588;2022-10-29T08:16:20;95538.53;;;42.60;14.93
1926;BME280;964;42.606;23.588;2022-10-29T08:18:47;95539.28;;;42.21;14.63
1926;BME280;964;42.606;23.588;2022-10-29T08:21:13;95539.19;;;42.40;15.08
1926;BME280;964;42.606;23.588;2022-10-29T08:23:40;95543.31;;;41.75;15.35
1926;BME280;964;42.606;23.588;2022-10-29T08:26:07;95545.06;;;39.52;16.58
1926;BME280;964;42.606;23.588;2022-10-29T08:28:34;95553.81;;;39.62;15.79
1926;BME280;964;42.606;23.588;2022-10-29T08:31:00;95539.78;;;41.05;15.52
1926;BME280;964;42.606;23.588;2022-10-29T08:33:28;95541.38;;;40.95;15.84
1926;BME280;964;42.606;23.588;2022-10-29T08:35:55;95533.34;;;41.80;15.53
1926;BME280;964;42.606;23.588;2022-10-29T08:38:22;95529.75;;;42.30;14.68
1926;BME280;964;42.606;23.588;2022-10-29T08:41:00;95531.56;;;42.53;15.22
1926;BME280;964;42.606;23.588;2022-10-29T08:43:48;95532.72;;;42.19;15.40
1926;BME280;964;42.606;23.588;2022-10-29T08:46:28;95534.00;;;42.18;15.33
1926;BME280;964;42.606;23.588;2022-10-29T08:49:02;95544.19;;;41.33;15.14
1926;BME280;964;42.606;23.588;2022-10-29T08:51:33;95538.56;;;41.57;14.97
1926;BME280;964;42.606;23.588;2022-10-29T08:54:02;95531.78;;;41.34;15.93
1926;BME280;964;42.606;23.588;2022-10-29T08:56:32;95522.41;;;42.14;14.84
1926;BME280;964;42.606;23.588;2022-10-29T08:59:02;95525.31;;;41.76;15.04
1926;BME280;964;42.606;23.588;2022-10-29T09:01:31;95520.06;;;41.41;15.32
1926;BME280;964;42.606;23.588;2022-10-29T09:03:59;95523.31;;;42.22;14.85
1926;BME280;964;42.606;23.588;2022-10-29T09:06:35;95515.41;;;42.65;15.23
1926;BME280;964;42.606;23.588;2022-10-29T09:09:12;95517.97;;;42.63;15.07
1926;BME280;964;42.606;23.588;2022-10-29T09:11:55;95510.91;;;42.62;15.26
1926;BME280;964;42.606;23.588;2022-10-29T09:14:43;95518.38;;;42.41;14.90
1926;BME280;964;42.606;23.588;2022-10-29T09:17:24;95515.81;;;42.69;15.06
1926;BME280;964;42.606;23.588;2022-10-29T09:20:04;95508.09;;;42.75;14.20
1926;BME280;964;42.606;23.588;2022-10-29T09:22:45;95496.44;;;42.97;14.73
1926;BME280;964;42.606;23.588;2022-10-29T09:25:17;95509.78;;;42.91;14.50
1926;BME280;964;42.606;23.588;2022-10-29T09:27:58;95501.22;;;42.63;15.01
1926;BME280;964;42.606;23.588;2022-10-29T09:30:28;95504.63;;;42.17;15.23
1926;BME280;964;42.606;23.588;2022-10-29T09:32:59;95504.59;;;41.90;14.99
1926;BME280;964;42.606;23.588;2022-10-29T09:35:36;95502.66;;;41.85;14.93
1926;BME280;964;42.606;23.588;2022-10-29T09:38:07;95507.19;;;41.56;15.37
1926;BME280;964;42.606;23.588;2022-10-29T09:40:40;95497.97;;;42.06;15.31
1926;BME280;964;42.606;23.588;2022-10-29T09:43:17;95492.50;;;42.01;14.64
1926;BME280;964;42.606;23.588;2022-10-29T09:45:51;95491.97;;;41.89;15.79
1926;BME280;964;42.606;23.588;2022-10-29T09:48:51;95482.66;;;41.68;15.33
1926;BME280;964;42.606;23.588;2022-10-29T09:51:50;95494.56;;;40.38;16.01
1926;BME280;964;42.606;23.588;2022-10-29T09:54:19;95477.81;;;41.24;15.16
1926;BME280;964;42.606;23.588;2022-10-29T09:56:46;95474.09;;;41.53;15.84
1926;BME280;964;42.606;23.588;2022-10-29T09:59:19;95472.84;;;40.79;16.34
1926;BME280;964;42.606;23.588;2022-10-29T10:01:49;95466.00;;;41.18;15.69
1926;BME280;964;42.606;23.588;2022-10-29T10:04:22;95457.69;;;41.81;15.26
1926;BME280;964;42.606;23.588;2022-10-29T10:07:05;95460.56;;;41.44;16.21
1926;BME280;964;42.606;23.588;2022-10-29T10:09:50;95453.09;;;41.65;15.44
1926;BME280;964;42.606;23.588;2022-10-29T10:12:18;95455.88;;;40.83;16.50
1926;BME280;964;42.606;23.588;2022-10-29T10:14:45;95448.34;;;41.15;15.81
1926;BME280;964;42.606;23.588;2022-10-29T10:17:12;95445.03;;;41.17;15.36
1926;BME280;964;42.606;23.588;2022-10-29T10:19:42;95435.06;;;41.40;15.17
1926;BME280;964;42.606;23.588;2022-10-29T10:22:18;95436.28;;;41.26;15.44
1926;BME280;964;42.606;23.588;2022-10-29T10:24:45;95426.56;;;41.64;15.77
1926;BME280;964;42.606;23.588;2022-10-29T10:27:24;95423.78;;;41.64;15.17
1926;BME280;964;42.606;23.588;2022-10-29T10:30:10;95414.81;;;41.71;15.69
1926;BME280;964;42.606;23.588;2022-10-29T10:32:37;95418.47;;;42.32;14.93
1926;BME280;964;42.606;23.588;2022-10-29T10:35:23;95406.56;;;42.44;15.03
1926;BME280;964;42.606;23.588;2022-10-29T10:37:52;95404.75;;;41.04;15.94
1926;BME280;964;42.606;23.588;2022-10-29T10:40:21;95398.41;;;41.68;16.00
1926;BME280;964;42.606;23.588;2022-10-29T10:42:51;95408.59;;;41.01;16.21
1926;BME280;964;42.606;23.588;2022-10-29T10:45:23;95398.75;;;40.63;16.57
1926;BME280;964;42.606;23.588;2022-10-29T10:47:53;95395.91;;;40.87;15.73
1926;BME280;964;42.606;23.588;2022-10-29T10:50:26;95389.78;;;40.89;16.45
1926;BME280;964;42.606;23.588;2022-10-29T10:52:57;95390.75;;;40.16;16.09
1926;BME280;964;42.606;23.588;2022-10-29T10:55:26;95380.19;;;41.22;15.32
1926;BME280;964;42.606;23.588;2022-10-29T10:58:00;95384.50;;;41.68;16.02
1926;BME280;964;42.606;23.588;2022-10-29T11:00:32;95375.81;;;41.97;15.81
1926;BME280;964;42.606;23.588;2022-10-29T11:03:05;95362.97;;;42.68;15.48
1926;BME280;964;42.606;23.588;2022-10-29T11:05:37;95374.94;;;42.16;15.31
1926;BME280;964;42.606;23.588;2022-10-29T11:08:11;95364.44;;;42.35;15.04
1926;BME280;964;42.606;23.588;2022-10-29T11:10:44;95360.63;;;41.85;14.94
1926;BME280;964;42.606;23.588;2022-10-29T11:13:15;95357.72;;;41.20;15.83
1926;BME280;964;42.606;23.588;2022-10-29T11:15:49;95350.75;;;41.45;16.18
1926;BME280;964;42.606;23.588;2022-10-29T11:18:21;95355.13;;;42.32;15.19
1926;BME280;964;42.606;23.588;2022-10-29T11:20:58;95350.91;;;43.07;14.70
1926;BME280;964;42.606;23.588;2022-10-29T11:23:35;95334.84;;;42.99;14.27
1926;BME280;964;42.606;23.588;2022-10-29T11:26:09;95328.09;;;43.57;14.65
1926;BME280;964;42.606;23.588;2022-10-29T11:28:41;95324.50;;;43.28;14.25
1926;BME280;964;42.606;23.588;2022-10-29T11:31:15;95321.97;;;43.38;14.04
1926;BME280;964;42.606;23.588;2022-10-29T11:33:51;95320.59;;;43.52;14.33
1926;BME280;964;42.606;23.588;2022-10-29T11:36:22;95316.06;;;43.41;13.96
1926;BME280;964;42.606;23.588;2022-10-29T11:38:54;95309.09;;;44.27;13.96
1926;BME280;964;42.606;23.588;2022-10-29T11:41:25;95294.63;;;44.44;13.53
1926;BME280;964;42.606;23.588;2022-10-29T11:43:56;95300.84;;;43.78;14.07
1926;BME280;964;42.606;23.588;2022-10-29T11:46:31;95303.25;;;43.74;13.62
1926;BME280;964;42.606;23.588;2022-10-29T11:49:08;95304.31;;;44.00;14.30
1926;BME280;964;42.606;23.588;2022-10-29T11:51:45;95295.75;;;44.56;13.63
1926;BME280;964;42.606;23.588;2022-10-29T11:54:34;95288.56;;;45.44;12.83
1926;BME280;964;42.606;23.588;2022-10-29T11:57:07;95285.34;;;45.78;12.64
1926;BME280;964;42.606;23.588;2022-10-29T11:59:41;95287.19;;;44.54;13.51
1926;BME280;964;42.606;23.588;2022-10-29T12:02:27;95282.03;;;45.04;13.44
1926;BME280;964;42.606;23.588;2022-10-29T12:05:02;95274.75;;;45.16;13.57
1926;BME280;964;42.606;23.588;2022-10-29T12:07:37;95276.25;;;43.41;14.15
1926;BME280;964;42.606;23.588;2022-10-29T12:10:34;95272.06;;;43.99;14.14
1926;BME280;964;42.606;23.588;2022-10-29T12:13:11;95264.38;;;44.35;13.67
1926;BME280;964;42.606;23.588;2022-10-29T12:15:47;95262.22;;;44.71;14.05
1926;BME280;964;42.606;23.588;2022-10-29T12:18:20;95250.25;;;45.62;13.07
1926;BME280;964;42.606;23.588;2022-10-29T12:20:56;95246.28;;;47.09;12.51
1926;BME280;964;42.606;23.588;2022-10-29T12:23:33;95241.03;;;46.89;12.11
1926;BME280;964;42.606;23.588;2022-10-29T12:26:07;95245.75;;;46.78;12.64
1926;BME280;964;42.606;23.588;2022-10-29T12:28:42;95233.19;;;47.81;11.68
1926;BME280;964;42.606;23.588;2022-10-29T12:31:22;95226.47;;;48.10;12.08
1926;BME280;964;42.606;23.588;2022-10-29T12:33:58;95246.09;;;45.70;12.72
1926;BME280;964;42.606;23.588;2022-10-29T12:36:33;95248.47;;;45.04;13.40
1926;BME280;964;42.606;23.588;2022-10-29T12:39:02;95234.19;;;45.62;13.32
1926;BME280;964;42.606;23.588;2022-10-29T12:41:35;95232.66;;;46.56;12.75
1926;BME280;964;42.606;23.588;2022-10-29T12:44:09;95244.34;;;44.59;13.27
1926;BME280;964;42.606;23.588;2022-10-29T12:46:42;95229.34;;;45.55;12.74
1926;BME280;964;42.606;23.588;2022-10-29T12:49:17;95227.72;;;46.64;12.10
1926;BME280;964;42.606;23.588;2022-10-29T12:51:50;95220.94;;;47.17;12.29
1926;BME280;964;42.606;23.588;2022-10-29T12:54:28;95217.00;;;47.37;11.98
1926;BME280;964;42.606;23.588;2022-10-29T12:57:04;95219.44;;;47.16;11.73
1926;BME280;964;42.606;23.588;2022-10-29T12:59:33;95208.91;;;47.41;11.79
1926;BME280;964;42.606;23.588;2022-10-29T13:02:21;95208.91;;;47.93;11.74
1926;BME280;964;42.606;23.588;2022-10-29T13:05:15;95211.00;;;47.16;12.78
1926;BME280;964;42.606;23.588;2022-10-29T13:10:55;95213.50;;;46.05;12.01
1926;BME280;964;42.606;23.588;2022-10-29T13:13:35;95211.34;;;46.53;11.99
1926;BME280;964;42.606;23.588;2022-10-29T13:16:06;95212.38;;;46.01;11.95
1926;BME280;964;42.606;23.588;2022-10-29T13:18:57;95213.28;;;43.40;13.57
1926;BME280;964;42.606;23.588;2022-10-29T13:22:01;95222.38;;;40.64;15.81
1926;BME280;964;42.606;23.588;2022-10-29T13:24:29;95221.41;;;39.31;16.28
1926;BME280;964;42.606;23.588;2022-10-29T13:27:02;95226.91;;;37.65;17.23
1926;BME280;964;42.606;23.588;2022-10-29T13:29:45;95231.06;;;37.30;17.24
1926;BME280;964;42.606;23.588;2022-10-29T13:32:29;95233.38;;;37.15;17.69
1926;BME280;964;42.606;23.588;2022-10-29T13:34:58;95234.38;;;37.01;17.47
1926;BME280;964;42.606;23.588;2022-10-29T13:37:52;95234.06;;;35.99;18.13
1926;BME280;964;42.606;23.588;2022-10-29T13:41:02;95239.91;;;36.51;17.76
1926;BME280;964;42.606;23.588;2022-10-29T13:43:32;95228.00;;;37.40;17.65
1926;BME280;964;42.606;23.588;2022-10-29T13:46:31;95214.88;;;38.09;16.80
1926;BME280;964;42.606;23.588;2022-10-29T13:49:01;95214.13;;;38.44;16.40
1926;BME280;964;42.606;23.588;2022-10-29T13:51:33;95218.47;;;38.34;16.50
1926;BME280;964;42.606;23.588;2022-10-29T13:54:05;95211.91;;;38.96;17.15
1926;BME280;964;42.606;23.588;2022-10-29T13:56:38;95211.78;;;41.34;14.88
1926;BME280;964;42.606;23.588;2022-10-29T13:59:13;95203.72;;;42.17;14.42